Milei Airstrip

AYEI · Northern Province, Papua-Nova Guiné

História da METAR AYEI · Milei Airstrip

Abaixo você vê METARs dos últimos dias. Selecione um ano para navegar pelos METARs mais antigos, a partir do ano 2007.

30 de novembro de 2022

Hora Código Clima Temp. Visibilidade Tecto Vento METAR/SPECI
23:00
V
26 °C 10 km+ - Var Var 3 kt METAR AYPY 301300Z VRB03KT 9999 SCT050 26/24 Q1006
23:00
V
26 °C 10 km+ - Var Var 3 kt METAR AYPY 301300Z VRB03KT 9999 SCT050 26/24 Q1006=
22:00
V
27 °C 10 km+ - Var Var 3 kt METAR AYPY 301200Z VRB03KT 9999 SCT050 27/24 Q1006
21:00
V
28 °C 10 km+ - Var Var 3 kt METAR AYPY 301100Z VRB03KT 9999 SCT050 28/24 Q1006
20:00
V
28 °C 10 km+ - Var Var 3 kt METAR AYPY 301000Z VRB03KT 9999 SCT050 28/24 Q1006
18:00
V
30 °C 10 km+ - 130° 130° 5 kt METAR AYPY 300800Z 13005KT 9999 FEW030 SCT080 30/22 Q1004
17:00
V
31 °C 10 km+ - 200° 200° 15 kt METAR AYPY 300700Z 20015KT 9999 SCT030 SCT060 31/22 Q1004
15:00
V
34 °C 10 km+ - 190° 190° 15 kt METAR AYPY 300500Z 19015KT 9999 HZ FEW030 FEW050 SCT090 34/22 Q1003
14:00
V
35 °C 10 km+ - 190° 190° 15 kt METAR AYPY 300400Z 19015KT 9999 HZ FEW030 FEW050 35/22 Q1003
13:00
V
34 °C 10 km+ - 260° 260° 10 kt METAR AYPY 300300Z 26010KT 9999 HZ FEW030 FEW050 34/22 Q1004
12:00
V
33 °C 10 km+ - 210° 210° 15 kt METAR AYPY 300200Z 21015KT 9999 FEW030 FEW050 33/21 Q1005
11:00
V
34 °C 10 km+ - 310° 310° 10 kt METAR AYPY 300100Z 31010KT 9999 SCT050 34/21 Q1006
10:00
V
32 °C 10 km+ - 350° 350° 8 kt METAR AYPY 300000Z 35008KT 9999 SCT050 32/22 Q1006
06:00
V
24 °C 10 km+ - 320° 320° 8 kt METAR AYPY 292000Z 32008KT 9999 SCT050 24/23 Q1006=
05:00
V
24 °C 10 km+ - 320° 320° 10 kt METAR AYPY 291900Z 32010KT 9999 SCT050 24/23 Q1006
04:00
V
24 °C 10 km+ - 320° 320° 10 kt METAR AYPY 291800Z 32010KT 9999 SCT050 24/23 Q1005
03:00
V
25 °C 10 km+ - 350° 350° 10 kt METAR AYPY 291700Z 35010KT 9999 SCT050 25/23 Q1006
02:00
V
25 °C 10 km+ - 350° 350° 10 kt METAR AYPY 291600Z 35010KT 9999 SCT050 25/23 Q1006
01:00
V
25 °C 10 km+ - 350° 350° 7 kt METAR AYPY 291500Z 35007KT 9999 SCT050 25/23 Q1007
00:00
V
26 °C 10 km+ 10.000 ft Var Var 3 kt METAR AYPY 291400Z VRB03KT 9999 SCT030 BKN100 26/24 Q1008

29 de novembro de 2022

Hora Código Clima Temp. Visibilidade Tecto Vento METAR/SPECI
23:00
V
26 °C 10 km+ 10.000 ft Var Var 3 kt METAR AYPY 291300Z VRB03KT 9999 SCT030 BKN100 26/24 Q1008
22:00
V
27 °C 10 km+ 10.000 ft Var Var 3 kt METAR AYPY 291200Z VRB03KT 9999 SCT025 BKN100 27/24 Q1008
21:00
V
27 °C 10 km+ 10.000 ft Var Var 3 kt METAR AYPY 291100Z VRB03KT 9999 BKN100 27/24 Q1008
20:00
V
28 °C 10 km+ 10.000 ft Var Var 3 kt METAR AYPY 291000Z VRB03KT 9999 FEW030 BKN100 28/24 Q1007
19:00
V
28 °C 10 km+ - 290° 290° 3 kt METAR AYPY 290900Z 29003KT 9999 FEW030 SCT050 28/24 Q1006
18:00
V
29 °C 10 km+ - Var Var 4 kt METAR AYPY 290800Z VRB04KT 9999 FEW030 SCT050 29/24 Q1006
17:00
V
30 °C 10 km+ - 320° 320° 10 kt METAR AYPY 290700Z 32010KT 9999 FEW015 SCT030 30/23 Q1005
16:00
V
30 °C 10 km+ - 360° 360° 10 kt METAR AYPY 290600Z 36010KT 9999 HZ FEW015 SCT030 30/23 Q1005=
15:00
V
31 °C 10 km+ - 340° 340° 15 kt METAR AYPY 290500Z 34015KT 9999 HZ FEW020 SCT035 31/23 Q1005
14:00
V
31 °C 10 km+ - 330° 330° 15 kt METAR AYPY 290400Z 33015KT 9999 HZ FEW020 SCT035 31/24 Q1005
13:00
V
30 °C 10 km+ - 320° 320° 15 kt METAR AYPY 290300Z 32015KT 9999 HZ FEW020 SCT035 30/23 Q1007
12:00
V
29 °C 10 km+ - 330° 330° 15 - 20 kt METAR AYPY 290200Z 33015G20KT 9999 SCT025 SCT050 29/24 Q1008
11:00
V
29 °C 10 km+ 5.000 ft 340° 340° 16 kt METAR AYPY 290100Z 34016KT 9999 SCT030 BKN050 29/24 Q1009
08:00
V
26 °C 10 km+ 7.000 ft 300° 300° 10 kt METAR AYPY 282200Z 30010KT 9999 SCT030 BKN070 26/24 Q1009
07:00
V
0 °C 10 km+ - 330° 330° 10 kt METAR AYPY 282100Z 33010KT 9999 RERA SCT030 BKN070 25/23 Q1009
06:00
V
24 °C 10 km+ - 320° 320° 10 kt METAR AYPY 282000Z 32010KT 9999 SCT050 24/24 Q1008 RMK/CB TO THE SE
05:00
V
24 °C 10 km+ - 310° 310° 10 kt METAR AYPY 281900Z 31010KT 9999 FEW040 24/24 Q1007
04:00
V
25 °C 10 km+ - 300° 300° 10 kt METAR AYPY 281800Z 30010KT 9999 FEW050 25/24 Q1006
03:00
V
25 °C 10 km+ 8.000 ft 320° 320° 10 kt METAR AYPY 281700Z 32010KT 9999 BCFG FEW010 SCT030 BKN080 25/24 Q1007 RMK
02:00
V
26 °C 10 km+ - Var Var 3 kt METAR AYPY 281600Z VRB03KT 9999 SCT070 26/25 Q1007 RMK/LTG OBS TO N
01:00
V
26 °C 10 km+ - Var Var 3 kt METAR AYPY 281500Z VRB03KT 9999 SCT090 26/25 Q1007
00:00
V
26 °C 10 km+ 16.000 ft Var Var 3 kt METAR AYPY 281400Z VRB03KT 9999 BKN160 26/25 Q1008

28 de novembro de 2022

Hora Código Clima Temp. Visibilidade Tecto Vento METAR/SPECI
23:00
V
27 °C 10 km+ - Var Var 3 kt METAR AYPY 281300Z VRB03KT 9999 SCT095 27/26 Q1008
20:00
V
27 °C 10 km+ - Var Var 4 kt METAR AYPY 281000Z VRB04KT 9999 FEW035 SCT055 27/25 Q1007

Nós e terceiros acompanhamos seu comportamento na internet em nosso site com cookies. Se você continuar, nós assumimos que você concorda com nosso política de cookies.